Time;durP1;ratioP1;P1;durP2;ratioP2;P2;SDS_P1;SDS_P2;PMS_P1;PMS_P2;Temp;Humidity;BMP_temperature;BMP_pressure;BME280_temperature;BME280_humidity;BME280_pressure;Samples;Min_cycle;Max_cycle;Signal;HPM_P1;HPM_P2
2023/08/30 00:01:58;;;;;;;;;;;;;;;21.90;30.98;96997.75;5015701;28;937;-81
2023/08/30 00:04:24;;;;;;;;;;;;;;;21.84;30.74;96998.38;5003963;28;1371;-81
2023/08/30 00:06:50;;;;;;;;;;;;;;;22.01;30.51;96996.03;5018116;28;1906;-81
2023/08/30 00:09:16;;;;;;;;;;;;;;;21.61;31.11;97001.84;5035358;28;1085;-80
2023/08/30 00:11:41;;;;;;;;;;;;;;;21.83;31.25;96996.81;5049661;28;920;-81
2023/08/30 00:14:07;;;;;;;;;;;;;;;22.23;30.42;96998.75;5058325;28;891;-80
2023/08/30 00:16:33;;;;;;;;;;;;;;;22.27;30.34;96995.72;5058871;28;1087;-81
2023/08/30 00:18:58;;;;;;;;;;;;;;;22.56;30.05;96986.72;5058744;28;961;-81
2023/08/30 00:21:25;;;;;;;;;;;;;;;22.56;30.09;96989.56;5034891;28;1535;-81
2023/08/30 00:23:51;;;;;;;;;;;;;;;22.54;30.00;96986.41;5034750;28;1053;-81
2023/08/30 00:26:16;;;;;;;;;;;;;;;22.24;30.21;96985.34;5035199;28;1922;-80
2023/08/30 00:28:42;;;;;;;;;;;;;;;22.29;30.46;96988.34;5018641;28;789;-81
2023/08/30 00:31:08;;;;;;;;;;;;;;;22.50;30.02;96991.47;5018870;28;945;-81
2023/08/30 00:33:33;;;;;;;;;;;;;;;22.62;30.13;96988.41;4985747;28;1171;-81
2023/08/30 00:36:00;;;;;;;;;;;;;;;22.63;29.82;96983.53;5018723;28;1309;-81
2023/08/30 00:38:26;;;;;;;;;;;;;;;22.53;29.90;96987.66;5000512;28;1144;-81
2023/08/30 00:40:52;;;;;;;;;;;;;;;22.73;29.53;96982.25;5012157;28;905;-81
2023/08/30 00:43:18;;;;;;;;;;;;;;;22.68;29.67;96985.72;4975778;28;1203;-81
2023/08/30 00:45:43;;;;;;;;;;;;;;;22.64;30.02;96982.28;4976266;28;1911;-81
2023/08/30 00:48:09;;;;;;;;;;;;;;;22.56;30.02;96978.22;4975665;28;1191;-81
2023/08/30 00:50:34;;;;;;;;;;;;;;;22.59;29.94;96977.28;4982362;28;1315;-81
2023/08/30 00:53:05;;;;;;;;;;;;;;;22.70;29.98;96976.75;4990759;28;1248;-81
2023/08/30 00:55:33;;;;;;;;;;;;;;;22.67;29.83;96975.66;5011305;28;798;-81
2023/08/30 00:57:59;;;;;;;;;;;;;;;22.55;30.05;96979.47;4979189;28;1089;-81
2023/08/30 01:00:25;;;;;;;;;;;;;;;22.89;29.59;96978.28;5001732;28;1299;-81
2023/08/30 01:02:50;;;;;;;;;;;;;;;22.77;29.61;96971.53;5030256;28;1550;-81
2023/08/30 01:05:16;;;;;;;;;;;;;;;22.56;30.06;96978.22;5031321;28;1906;-81
2023/08/30 01:07:42;;;;;;;;;;;;;;;22.56;30.14;96972.53;5031525;28;933;-81
2023/08/30 01:10:08;;;;;;;;;;;;;;;22.52;30.37;96983.25;5035048;28;1249;-80
2023/08/30 01:12:36;;;;;;;;;;;;;;;22.60;30.38;96978.84;5050549;28;1173;-81
2023/08/30 01:15:06;;;;;;;;;;;;;;;22.83;29.86;96980.94;5037785;28;819;-81
2023/08/30 01:17:32;;;;;;;;;;;;;;;22.65;30.26;96986.69;5037520;28;1340;-81
2023/08/30 01:20:00;;;;;;;;;;;;;;;22.70;30.18;96980.38;5065191;28;1153;-80
2023/08/30 01:22:32;;;;;;;;;;;;;;;22.75;30.16;96985.41;5115340;28;798;-81
2023/08/30 01:25:00;;;;;;;;;;;;;;;22.71;30.06;96979.13;5114543;28;1906;-81
2023/08/30 01:27:26;;;;;;;;;;;;;;;22.71;30.26;96984.78;5081870;28;1184;-81
2023/08/30 01:29:51;;;;;;;;;;;;;;;22.69;30.24;96981.66;5098014;28;768;-81
2023/08/30 01:32:17;;;;;;;;;;;;;;;22.63;30.14;96990.00;5077065;28;1323;-81
2023/08/30 01:34:42;;;;;;;;;;;;;;;22.66;30.21;96987.47;5077241;28;851;-81
2023/08/30 01:37:08;;;;;;;;;;;;;;;22.60;30.29;96990.97;5061054;28;1193;-81
2023/08/30 01:39:36;;;;;;;;;;;;;;;22.59;30.30;96995.06;5037615;28;1130;-80
2023/08/30 01:42:02;;;;;;;;;;;;;;;22.91;29.93;96994.84;5020031;28;857;-80
2023/08/30 01:44:27;;;;;;;;;;;;;;;22.96;29.57;96999.88;5054102;28;1126;-81
2023/08/30 01:46:53;;;;;;;;;;;;;;;22.85;29.81;96989.78;5069696;28;1918;-81
2023/08/30 01:49:19;;;;;;;;;;;;;;;22.66;30.19;96988.25;5054048;28;1165;-81
2023/08/30 01:51:45;;;;;;;;;;;;;;;22.62;30.36;96991.25;5037607;28;1146;-81
2023/08/30 01:54:11;;;;;;;;;;;;;;;22.69;30.35;96993.00;5036845;28;1539;-81
2023/08/30 01:56:38;;;;;;;;;;;;;;;22.99;29.70;96987.53;5070750;28;1145;-81
2023/08/30 01:59:04;;;;;;;;;;;;;;;22.84;29.91;96988.19;5053935;28;866;-81
2023/08/30 02:01:29;;;;;;;;;;;;;;;22.80;29.84;96981.94;5071942;28;1338;-81
2023/08/30 02:03:55;;;;;;;;;;;;;;;22.41;30.43;96983.75;5039475;28;1420;-81
2023/08/30 02:06:29;;;;;;;;;;;;;;;22.07;30.95;96988.50;5040818;28;1996;-81
2023/08/30 02:09:01;;;;;;;;;;;;;;;22.04;30.74;96988.63;5057378;28;1138;-80
2023/08/30 02:11:27;;;;;;;;;;;;;;;21.88;30.82;96986.13;5037993;28;1358;-81
2023/08/30 02:13:54;;;;;;;;;;;;;;;21.80;30.95;96986.41;5077477;28;1254;-81
2023/08/30 02:16:20;;;;;;;;;;;;;;;21.88;31.66;96986.13;5081072;28;829;-80
2023/08/30 02:18:45;;;;;;;;;;;;;;;21.83;31.67;96988.31;5063914;28;1181;-81
2023/08/30 02:21:11;;;;;;;;;;;;;;;21.99;31.33;96983.59;5055828;28;1452;-81
2023/08/30 02:23:36;;;;;;;;;;;;;;;22.02;31.24;96989.13;5076357;28;1349;-81
2023/08/30 02:26:03;;;;;;;;;;;;;;;22.15;30.87;96982.53;5077884;28;1913;-81
2023/08/30 02:28:29;;;;;;;;;;;;;;;22.31;30.62;96987.84;5043628;28;1051;-81
2023/08/30 02:30:54;;;;;;;;;;;;;;;22.46;30.42;96985.16;5077757;28;925;-81
2023/08/30 02:33:20;;;;;;;;;;;;;;;22.29;30.71;96977.00;5077128;28;956;-81
2023/08/30 02:35:46;;;;;;;;;;;;;;;22.30;30.36;96972.91;5077288;28;969;-81
2023/08/30 02:38:11;;;;;;;;;;;;;;;22.45;30.49;96972.25;5042800;28;1468;-81
2023/08/30 02:40:37;;;;;;;;;;;;;;;22.50;30.44;96974.44;5040619;28;754;-81
2023/08/30 02:43:02;;;;;;;;;;;;;;;22.71;29.79;96976.28;5056960;28;836;-81
2023/08/30 02:45:28;;;;;;;;;;;;;;;22.70;29.78;96977.53;5040033;28;2048;-81
2023/08/30 02:47:56;;;;;;;;;;;;;;;22.43;30.58;96981.22;5057130;28;1237;-81
2023/08/30 02:50:22;;;;;;;;;;;;;;;22.40;30.60;96975.72;5040444;28;1146;-81
2023/08/30 02:52:48;;;;;;;;;;;;;;;22.38;30.59;96972.56;5058080;28;866;-81
2023/08/30 02:55:14;;;;;;;;;;;;;;;22.65;30.08;96969.69;5065978;28;1493;-81
2023/08/30 02:57:39;;;;;;;;;;;;;;;22.52;30.04;96974.75;5074819;28;1411;-81
2023/08/30 03:00:05;;;;;;;;;;;;;;;22.55;30.03;96968.13;5111691;28;719;-81
2023/08/30 03:02:33;;;;;;;;;;;;;;;22.45;30.40;96960.91;5094394;28;1247;-81
2023/08/30 03:04:59;;;;;;;;;;;;;;;22.63;30.10;96961.63;5094017;28;1246;-81
2023/08/30 03:07:25;;;;;;;;;;;;;;;22.59;30.08;96966.72;5073529;28;1902;-81
2023/08/30 03:09:52;;;;;;;;;;;;;;;22.45;30.29;96966.59;5072869;28;1520;-81
2023/08/30 03:12:19;;;;;;;;;;;;;;;22.54;30.20;96963.72;5089099;28;1177;-81
2023/08/30 03:14:45;;;;;;;;;;;;;;;22.32;30.33;96964.69;5090106;28;1470;-80
2023/08/30 03:17:12;;;;;;;;;;;;;;;22.79;29.93;96969.00;5073455;28;1200;-80
2023/08/30 03:19:37;;;;;;;;;;;;;;;22.73;29.93;96964.44;5073529;28;1045;-80
2023/08/30 03:22:03;;;;;;;;;;;;;;;22.75;29.61;96957.06;5090654;28;1137;-80
2023/08/30 03:24:28;;;;;;;;;;;;;;;22.60;30.15;96962.59;5128379;27;1540;-80
2023/08/30 03:26:54;;;;;;;;;;;;;;;22.80;29.70;96964.91;5098534;28;1898;-80
2023/08/30 03:29:20;;;;;;;;;;;;;;;22.46;30.26;96962.47;5098734;28;1196;-80
2023/08/30 03:31:46;;;;;;;;;;;;;;;22.74;29.93;96971.69;5099564;28;1044;-81
2023/08/30 03:34:12;;;;;;;;;;;;;;;22.57;29.98;96968.44;5098623;28;1260;-80
2023/08/30 03:36:37;;;;;;;;;;;;;;;22.69;29.63;96970.31;5116279;28;980;-80
2023/08/30 03:39:03;;;;;;;;;;;;;;;22.83;29.51;96975.28;5098489;28;1556;-81
2023/08/30 03:41:28;;;;;;;;;;;;;;;22.70;29.77;96974.72;5098946;28;1287;-80
2023/08/30 03:43:54;;;;;;;;;;;;;;;22.67;29.78;96978.50;5098809;28;1145;-80
2023/08/30 03:46:20;;;;;;;;;;;;;;;22.67;29.73;96978.50;5116654;28;1901;-81
2023/08/30 03:48:45;;;;;;;;;;;;;;;22.64;29.82;96976.63;5126337;27;1010;-81
2023/08/30 03:51:11;;;;;;;;;;;;;;;22.76;29.78;96972.78;5082563;28;1141;-81
2023/08/30 03:53:37;;;;;;;;;;;;;;;22.74;29.78;96981.00;5081882;28;1132;-81
2023/08/30 03:56:06;;;;;;;;;;;;;;;22.73;29.88;96976.56;5098814;28;1204;-81
2023/08/30 03:58:31;;;;;;;;;;;;;;;22.62;30.20;96977.09;5065615;28;1291;-81
2023/08/30 04:00:57;;;;;;;;;;;;;;;22.73;29.90;96976.56;5082789;28;1450;-81
2023/08/30 04:03:23;;;;;;;;;;;;;;;22.54;30.03;96975.84;5054927;28;1137;-81
2023/08/30 04:05:54;;;;;;;;;;;;;;;22.54;30.25;96980.75;5055047;28;1905;-80
2023/08/30 04:08:20;;;;;;;;;;;;;;;22.59;30.08;96988.59;5054829;28;1236;-81
2023/08/30 04:10:48;;;;;;;;;;;;;;;21.84;30.00;96868.13;5055172;28;876;-81
2023/08/30 04:13:15;;;;;;;;;;;;;;;22.77;29.57;96988.53;5055375;28;1013;-80
2023/08/30 04:15:40;;;;;;;;;;;;;;;22.74;29.73;96995.19;5055109;28;934;-80
2023/08/30 04:18:08;;;;;;;;;;;;;;;22.61;29.95;96997.41;5054603;28;1227;-81
2023/08/30 04:20:34;;;;;;;;;;;;;;;22.74;29.75;96995.19;5071967;28;1216;-80
2023/08/30 04:23:01;;;;;;;;;;;;;;;22.87;29.59;96998.59;5054167;28;1163;-82
2023/08/30 04:25:28;;;;;;;;;;;;;;;22.90;29.67;97007.44;5054159;28;1906;-82
2023/08/30 04:27:54;;;;;;;;;;;;;;;22.67;29.69;97006.06;5056060;28;1255;-82
2023/08/30 04:30:20;;;;;;;;;;;;;;;22.84;29.62;97010.09;5055993;28;1155;-81
2023/08/30 04:32:46;;;;;;;;;;;;;;;22.86;29.48;97016.09;5072711;28;1209;-80
2023/08/30 04:35:11;;;;;;;;;;;;;;;23.04;29.24;97023.78;5055783;28;1284;-81
2023/08/30 04:37:40;;;;;;;;;;;;;;;22.91;29.54;97026.03;5072801;28;1137;-81
2023/08/30 04:40:11;;;;;;;;;;;;;;;23.12;29.21;97030.69;5056047;28;743;-81
2023/08/30 04:42:37;;;;;;;;;;;;;;;22.68;29.88;97033.94;5056352;28;1182;-81
2023/08/30 04:45:03;;;;;;;;;;;;;;;22.75;29.55;97039.28;5071467;28;1129;-81
2023/08/30 04:47:30;;;;;;;;;;;;;;;22.85;29.62;97032.34;5055266;28;1280;-81
2023/08/30 04:49:56;;;;;;;;;;;;;;;22.87;29.47;97021.28;5054655;28;1374;-81
2023/08/30 04:52:22;;;;;;;;;;;;;;;23.04;29.42;97024.56;5039048;28;1238;-81
2023/08/30 04:54:48;;;;;;;;;;;;;;;22.69;29.88;97026.22;5054676;28;1169;-80
2023/08/30 04:57:16;;;;;;;;;;;;;;;22.71;29.88;97035.81;5072074;28;1276;-79
2023/08/30 04:59:42;;;;;;;;;;;;;;;22.61;29.95;97020.88;5071038;28;1235;-81
2023/08/30 05:02:08;;;;;;;;;;;;;;;22.61;30.25;97025.75;5071220;28;1073;-81
2023/08/30 05:04:39;;;;;;;;;;;;;;;23.13;29.30;97026.59;5319256;22;3631;-76
2023/08/30 05:07:05;;;;;;;;;;;;;;;23.58;30.57;97021.97;5095640;28;1914;-77
2023/08/30 05:09:32;;;;;;;;;;;;;;;23.89;31.20;97021.63;5238287;22;3606;-77
2023/08/30 05:11:58;;;;;;;;;;;;;;;24.01;32.83;97026.28;5039712;28;1793;-77
2023/08/30 05:14:24;;;;;;;;;;;;;;;24.08;33.16;97019.44;5040888;28;1260;-77
2023/08/30 05:16:49;;;;;;;;;;;;;;;23.17;33.40;97023.59;4997597;28;1278;-77
2023/08/30 05:19:16;;;;;;;;;;;;;;;22.55;33.40;97028.47;4994388;28;1127;-77
2023/08/30 05:21:42;;;;;;;;;;;;;;;22.24;32.75;97020.16;4967554;28;1148;-77
2023/08/30 05:24:08;;;;;;;;;;;;;;;22.27;31.78;97030.50;4977836;28;1349;-78
2023/08/30 05:26:34;;;;;;;;;;;;;;;22.18;31.32;97026.94;4959147;28;1911;-77
2023/08/30 05:28:59;;;;;;;;;;;;;;;21.87;31.14;97030.66;4994349;28;1448;-76
2023/08/30 05:31:25;;;;;;;;;;;;;;;21.85;32.07;97039.59;4962508;28;1360;-78
2023/08/30 05:34:14;;;;;;;;;;;;;;;21.94;31.95;97026.72;4943334;28;1024;-78
2023/08/30 05:36:39;;;;;;;;;;;;;;;22.22;30.89;97028.31;4959432;28;965;-77
2023/08/30 05:39:43;;;;;;;;;;;;;;;22.31;30.21;97033.97;4902462;29;971;-78
2023/08/30 05:42:09;;;;;;;;;;;;;;;22.46;29.84;97036.19;4890672;29;1082;-77
2023/08/30 05:44:35;;;;;;;;;;;;;;;22.31;30.07;97031.16;4921302;29;1160;-78
2023/08/30 05:47:00;;;;;;;;;;;;;;;22.50;29.39;97036.81;4921626;29;2333;-78
2023/08/30 05:49:26;;;;;;;;;;;;;;;22.41;29.37;97022.66;4921833;29;1138;-77
2023/08/30 05:51:52;;;;;;;;;;;;;;;22.50;29.09;97039.66;4905629;29;1198;-77
2023/08/30 05:54:18;;;;;;;;;;;;;;;22.45;29.23;97040.28;4918593;29;1090;-78
2023/08/30 05:56:43;;;;;;;;;;;;;;;22.40;29.13;97040.91;4969383;28;1253;-78
2023/08/30 05:59:09;;;;;;;;;;;;;;;22.45;28.79;97037.44;4962818;28;1184;-78
2023/08/30 06:01:35;;;;;;;;;;;;;;;22.36;28.84;97039.03;4964355;28;1254;-78
2023/08/30 06:04:00;;;;;;;;;;;;;;;22.35;29.00;97043.13;4896293;29;1368;-78
2023/08/30 06:06:27;;;;;;;;;;;;;;;22.18;28.73;97039.03;4943552;29;1906;-78
2023/08/30 06:08:52;;;;;;;;;;;;;;;22.58;28.32;97043.72;4943571;29;1340;-78
2023/08/30 06:11:18;;;;;;;;;;;;;;;22.31;28.47;97041.69;5013946;28;1591;-78
2023/08/30 06:13:44;;;;;;;;;;;;;;;22.30;28.69;97046.59;5058373;28;959;-78
2023/08/30 06:16:09;;;;;;;;;;;;;;;22.59;28.16;97033.97;5074997;28;975;-78
2023/08/30 06:18:37;;;;;;;;;;;;;;;22.68;28.02;97039.59;5040640;28;1232;-78
2023/08/30 06:21:03;;;;;;;;;;;;;;;22.42;28.20;97047.66;5040872;28;1062;-78
2023/08/30 06:23:29;;;;;;;;;;;;;;;22.30;28.42;97045.81;5040820;28;935;-78
2023/08/30 06:25:55;;;;;;;;;;;;;;;22.55;28.11;97051.13;5040718;28;1918;-78
2023/08/30 06:28:20;;;;;;;;;;;;;;;22.70;27.66;97048.44;5040422;28;979;-78
2023/08/30 06:30:46;;;;;;;;;;;;;;;22.53;27.81;97055.69;5057010;28;942;-78
2023/08/30 06:33:12;;;;;;;;;;;;;;;22.23;28.35;97044.06;5040476;28;1095;-77
2023/08/30 06:35:41;;;;;;;;;;;;;;;22.45;28.16;97057.28;5023959;28;1261;-78
2023/08/30 06:38:06;;;;;;;;;;;;;;;22.43;27.68;97054.13;5024029;28;1122;-78
2023/08/30 06:40:32;;;;;;;;;;;;;;;22.46;28.01;97061.69;5040355;28;951;-78
2023/08/30 06:42:59;;;;;;;;;;;;;;;22.27;28.08;97058.06;5039929;28;882;-78
2023/08/30 06:45:24;;;;;;;;;;;;;;;22.21;28.10;97049.41;5020452;28;1969;-78
2023/08/30 06:47:50;;;;;;;;;;;;;;;22.20;28.14;97059.19;5019410;28;980;-78
2023/08/30 06:50:15;;;;;;;;;;;;;;;22.08;28.33;97045.94;5019700;28;991;-79
2023/08/30 06:52:41;;;;;;;;;;;;;;;22.20;28.30;97059.19;5019828;28;939;-78
2023/08/30 06:55:07;;;;;;;;;;;;;;;22.34;27.78;97064.22;5019640;28;849;-78
2023/08/30 06:57:32;;;;;;;;;;;;;;;22.33;27.88;97061.88;5019416;28;810;-79
2023/08/30 06:59:59;;;;;;;;;;;;;;;22.24;28.20;97065.47;5035954;28;735;-78
2023/08/30 07:02:25;;;;;;;;;;;;;;;22.29;28.07;97073.34;5003247;28;832;-79
2023/08/30 07:04:51;;;;;;;;;;;;;;;22.34;27.62;97069.91;5020131;28;982;-77
2023/08/30 07:07:16;;;;;;;;;;;;;;;22.47;27.43;97063.25;5036231;28;1914;-77
2023/08/30 07:09:42;;;;;;;;;;;;;;;22.56;27.46;97066.09;5003003;28;1428;-77
2023/08/30 07:12:07;;;;;;;;;;;;;;;22.42;27.78;97070.34;5003037;28;904;-77
2023/08/30 07:14:33;;;;;;;;;;;;;;;22.32;28.07;97071.59;5019349;28;823;-76
2023/08/30 07:16:59;;;;;;;;;;;;;;;22.30;27.98;97068.47;5019456;28;793;-77
2023/08/30 07:19:25;;;;;;;;;;;;;;;22.24;28.13;97073.97;5035554;28;793;-77
2023/08/30 07:21:50;;;;;;;;;;;;;;;22.27;27.94;97070.19;5038326;28;885;-78
2023/08/30 07:24:16;;;;;;;;;;;;;;;22.27;28.07;97070.19;5058025;28;989;-78
2023/08/30 07:26:41;;;;;;;;;;;;;;;22.28;28.07;97076.66;5056254;28;1984;-77
2023/08/30 07:29:08;;;;;;;;;;;;;;;22.19;28.18;97074.59;5058116;28;920;-78
2023/08/30 07:31:34;;;;;;;;;;;;;;;22.36;28.06;97077.91;5057907;28;928;-78
2023/08/30 07:33:59;;;;;;;;;;;;;;;22.33;27.90;97073.22;5056053;28;958;-78
2023/08/30 07:36:26;;;;;;;;;;;;;;;22.56;27.80;97074.59;5058425;28;960;-78
2023/08/30 07:38:51;;;;;;;;;;;;;;;22.49;27.65;97086.28;5056747;28;871;-77
2023/08/30 07:41:17;;;;;;;;;;;;;;;22.38;28.00;97080.25;5057658;28;932;-77
2023/08/30 07:43:42;;;;;;;;;;;;;;;22.21;28.34;97091.91;5058192;28;852;-78
2023/08/30 07:46:08;;;;;;;;;;;;;;;22.39;28.05;97079.81;5057620;28;1971;-77
2023/08/30 07:48:33;;;;;;;;;;;;;;;22.44;27.84;97078.41;5039847;28;943;-77
2023/08/30 07:50:59;;;;;;;;;;;;;;;22.25;28.37;97084.06;5056749;28;790;-78
2023/08/30 07:53:25;;;;;;;;;;;;;;;22.32;27.99;97082.94;5056572;28;1133;-78
2023/08/30 07:55:50;;;;;;;;;;;;;;;22.51;27.85;97084.53;5057582;28;888;-79
2023/08/30 07:58:17;;;;;;;;;;;;;;;22.36;28.17;97084.38;5057232;28;902;-78
2023/08/30 08:00:42;;;;;;;;;;;;;;;22.39;27.99;97076.19;5056193;28;1303;-78
2023/08/30 08:03:09;;;;;;;;;;;;;;;22.57;27.83;97070.50;5057595;28;891;-77
2023/08/30 08:05:35;;;;;;;;;;;;;;;22.18;28.43;97067.38;5055593;28;1990;-78
2023/08/30 08:08:04;;;;;;;;;;;;;;;22.19;28.33;97068.94;5056149;28;890;-78
2023/08/30 08:10:36;;;;;;;;;;;;;;;22.42;28.03;97063.91;5056122;28;1048;-77
2023/08/30 08:13:01;;;;;;;;;;;;;;;22.15;28.40;97068.31;5038813;28;1136;-77
2023/08/30 08:15:28;;;;;;;;;;;;;;;22.14;28.35;97069.56;5055347;28;1138;-78
2023/08/30 08:17:54;;;;;;;;;;;;;;;22.20;28.28;97064.06;5039127;28;950;-78
2023/08/30 08:20:20;;;;;;;;;;;;;;;22.32;28.07;97069.56;5021923;28;895;-77
2023/08/30 08:22:45;;;;;;;;;;;;;;;22.45;27.69;97062.97;5038555;28;1035;-78
2023/08/30 08:25:11;;;;;;;;;;;;;;;22.38;28.15;97063.25;5038544;28;1007;-77
2023/08/30 08:27:37;;;;;;;;;;;;;;;22.50;27.87;97059.50;5038182;28;1985;-77
2023/08/30 08:30:04;;;;;;;;;;;;;;;22.23;28.10;97060.28;5034311;28;1012;-77
2023/08/30 08:32:30;;;;;;;;;;;;;;;22.19;28.24;97056.81;5017834;28;975;-77
2023/08/30 08:34:56;;;;;;;;;;;;;;;22.53;27.71;97047.19;5001337;28;949;-77
2023/08/30 08:37:22;;;;;;;;;;;;;;;22.25;28.24;97052.09;5018269;28;976;-78
2023/08/30 08:39:49;;;;;;;;;;;;;;;22.30;28.21;97057.91;5017862;28;939;-78
2023/08/30 08:42:19;;;;;;;;;;;;;;;22.23;28.22;97057.47;5001882;28;1114;-77
2023/08/30 08:44:50;;;;;;;;;;;;;;;22.30;28.14;97060.75;5018173;28;1036;-77
2023/08/30 08:47:16;;;;;;;;;;;;;;;22.58;27.57;97060.72;5002070;28;1914;-78
2023/08/30 08:49:42;;;;;;;;;;;;;;;22.46;27.89;97058.84;5017950;28;981;-77
2023/08/30 08:52:07;;;;;;;;;;;;;;;22.79;27.34;97054.06;5017738;28;1056;-77
2023/08/30 08:54:33;;;;;;;;;;;;;;;22.18;28.30;97055.25;5001656;28;1256;-78
2023/08/30 08:56:59;;;;;;;;;;;;;;;22.38;28.03;97051.94;5034129;28;913;-78
2023/08/30 08:59:24;;;;;;;;;;;;;;;22.22;28.28;97056.66;5034235;28;918;-77
2023/08/30 09:01:50;;;;;;;;;;;;;;;22.16;28.38;97067.03;5052768;28;944;-77
2023/08/30 09:04:15;;;;;;;;;;;;;;;22.18;28.33;97055.25;5055335;28;1004;-77
2023/08/30 09:06:43;;;;;;;;;;;;;;;22.06;28.82;97056.94;5055151;28;1914;-78
2023/08/30 09:09:08;;;;;;;;;;;;;;;22.14;28.48;97055.41;5055529;28;857;-78
2023/08/30 09:11:34;;;;;;;;;;;;;;;22.02;28.73;97053.47;5059049;28;1032;-78
2023/08/30 09:14:00;;;;;;;;;;;;;;;22.06;28.61;97060.53;5058202;28;1020;-78
2023/08/30 09:16:25;;;;;;;;;;;;;;;22.01;28.44;97057.56;5060503;28;833;-78
2023/08/30 09:19:00;;;;;;;;;;;;;;;22.26;28.29;97051.63;5060272;28;857;-77
2023/08/30 09:21:26;;;;;;;;;;;;;;;22.21;28.36;97046.56;5002140;28;1138;-78
2023/08/30 09:23:58;;;;;;;;;;;;;;;22.36;27.85;97050.34;5018420;28;972;-78
2023/08/30 09:26:24;;;;;;;;;;;;;;;22.07;28.67;97052.84;5017986;28;1958;-77
2023/08/30 09:28:50;;;;;;;;;;;;;;;22.07;28.48;97044.34;5018119;28;921;-77
2023/08/30 09:31:20;;;;;;;;;;;;;;;22.14;28.51;97043.28;5001234;28;940;-78
2023/08/30 09:33:47;;;;;;;;;;;;;;;22.12;28.47;97040.91;5017588;28;846;-78
2023/08/30 09:36:13;;;;;;;;;;;;;;;22.22;28.59;97045.31;5018063;28;931;-77
2023/08/30 09:38:38;;;;;;;;;;;;;;;22.35;28.12;97043.13;5017734;28;782;-77
2023/08/30 09:41:04;;;;;;;;;;;;;;;22.16;28.61;97047.22;5017585;28;910;-78
2023/08/30 09:43:31;;;;;;;;;;;;;;;22.33;28.24;97042.03;5017450;28;922;-78
2023/08/30 09:45:57;;;;;;;;;;;;;;;22.10;28.56;97044.22;5017377;28;1910;-78
2023/08/30 09:48:23;;;;;;;;;;;;;;;22.34;28.21;97046.44;5017670;28;986;-78
2023/08/30 09:50:50;;;;;;;;;;;;;;;22.29;28.34;97049.91;5017667;28;949;-79
2023/08/30 09:53:16;;;;;;;;;;;;;;;22.25;28.20;97041.53;5065835;28;726;-79
2023/08/30 09:55:41;;;;;;;;;;;;;;;22.36;28.24;97044.69;5057853;28;863;-79
2023/08/30 09:58:07;;;;;;;;;;;;;;;22.47;27.93;97040.59;5041683;28;835;-78
2023/08/30 10:00:33;;;;;;;;;;;;;;;22.54;27.90;97038.22;5058183;28;988;-79
2023/08/30 10:02:59;;;;;;;;;;;;;;;22.52;28.01;97042.78;5058127;28;994;-78
2023/08/30 10:05:25;;;;;;;;;;;;;;;22.52;27.74;97037.91;5058297;28;1985;-76
2023/08/30 10:07:52;;;;;;;;;;;;;;;22.37;27.98;97036.97;5058212;28;915;-76
2023/08/30 10:10:17;;;;;;;;;;;;;;;22.16;28.54;97037.94;5058068;28;1033;-75
2023/08/30 10:12:43;;;;;;;;;;;;;;;22.12;28.38;97037.28;5074652;28;982;-76
2023/08/30 10:15:08;;;;;;;;;;;;;;;22.15;28.54;97036.34;5057149;28;926;-76
2023/08/30 10:17:34;;;;;;;;;;;;;;;22.21;28.38;97042.97;5040675;28;914;-76
2023/08/30 10:20:02;;;;;;;;;;;;;;;22.49;27.87;97040.91;5040574;28;914;-76
2023/08/30 10:22:27;;;;;;;;;;;;;;;22.45;27.96;97028.94;5039014;28;921;-75
2023/08/30 10:24:54;;;;;;;;;;;;;;;22.12;28.61;97035.25;5040396;28;903;-76
2023/08/30 10:27:20;;;;;;;;;;;;;;;22.23;28.31;97029.91;5040047;28;1906;-75
2023/08/30 10:29:45;;;;;;;;;;;;;;;22.52;27.83;97039.94;5023942;28;896;-76
2023/08/30 10:32:11;;;;;;;;;;;;;;;22.42;28.11;97036.34;5056708;28;895;-76
2023/08/30 10:34:37;;;;;;;;;;;;;;;22.34;28.25;97030.22;5056489;28;984;-75
2023/08/30 10:37:03;;;;;;;;;;;;;;;22.21;28.57;97023.91;5039907;28;1084;-75
2023/08/30 10:39:35;;;;;;;;;;;;;;;22.49;27.94;97023.91;5039766;28;856;-75
2023/08/30 10:42:06;;;;;;;;;;;;;;;22.29;28.38;97033.69;5039898;28;1087;-76
2023/08/30 10:44:32;;;;;;;;;;;;;;;22.09;28.73;97022.00;5039702;28;849;-76
2023/08/30 10:46:57;;;;;;;;;;;;;;;22.26;28.40;97028.94;5058038;28;1985;-76
2023/08/30 10:49:23;;;;;;;;;;;;;;;22.18;28.39;97027.72;5058530;28;1024;-75
2023/08/30 10:51:58;;;;;;;;;;;;;;;21.99;28.66;97024.03;5073982;28;872;-76
2023/08/30 10:54:24;;;;;;;;;;;;;;;22.22;28.35;97031.16;5074004;28;1026;-75
2023/08/30 10:56:57;;;;;;;;;;;;;;;22.24;28.47;97031.47;5074012;28;914;-75
2023/08/30 10:59:23;;;;;;;;;;;;;;;22.09;28.61;97019.16;5075995;28;893;-77
2023/08/30 11:01:49;;;;;;;;;;;;;;;22.22;28.44;97022.66;5059541;28;951;-76
2023/08/30 11:04:16;;;;;;;;;;;;;;;22.20;28.49;97022.34;5026102;28;1001;-77
2023/08/30 11:06:45;;;;;;;;;;;;;;;22.19;28.65;97015.09;5059410;28;1973;-76
2023/08/30 11:09:14;;;;;;;;;;;;;;;22.40;27.95;97015.41;5076338;28;796;-76
2023/08/30 11:11:40;;;;;;;;;;;;;;;22.10;28.65;97004.56;5059548;28;1135;-76
2023/08/30 11:14:06;;;;;;;;;;;;;;;22.45;28.17;97017.59;5059636;28;995;-76
2023/08/30 11:16:34;;;;;;;;;;;;;;;22.53;28.03;97010.34;5059126;28;1051;-76
2023/08/30 11:19:00;;;;;;;;;;;;;;;22.21;28.32;97009.75;5059397;28;894;-76
2023/08/30 11:21:26;;;;;;;;;;;;;;;21.96;28.78;97015.69;5059150;28;929;-76
2023/08/30 11:23:51;;;;;;;;;;;;;;;22.19;28.46;97006.59;5076021;28;921;-76
2023/08/30 11:26:17;;;;;;;;;;;;;;;22.31;28.41;97002.81;5075543;28;1898;-77
2023/08/30 11:28:45;;;;;;;;;;;;;;;22.23;28.50;96995.91;5075535;28;899;-76
2023/08/30 11:31:17;;;;;;;;;;;;;;;22.32;28.46;96998.72;5056635;28;886;-76
2023/08/30 11:33:49;;;;;;;;;;;;;;;22.10;28.74;96992.41;5073081;28;938;-76
2023/08/30 11:36:15;;;;;;;;;;;;;;;22.30;28.22;96998.41;5056842;28;918;-77
2023/08/30 11:38:40;;;;;;;;;;;;;;;22.26;28.33;96992.09;5058602;28;1220;-76
2023/08/30 11:41:06;;;;;;;;;;;;;;;22.11;28.73;96999.69;5058704;28;974;-76
2023/08/30 11:43:31;;;;;;;;;;;;;;;22.27;28.45;96990.84;5042260;28;918;-76
2023/08/30 11:45:57;;;;;;;;;;;;;;;22.24;28.56;96986.13;5042336;28;1906;-77
2023/08/30 11:48:23;;;;;;;;;;;;;;;22.26;28.30;96989.28;5075705;28;849;-77
2023/08/30 11:50:48;;;;;;;;;;;;;;;22.32;28.12;96978.88;5058904;28;903;-76
2023/08/30 11:53:14;;;;;;;;;;;;;;;22.31;28.13;96982.19;5058298;28;938;-76
2023/08/30 11:55:39;;;;;;;;;;;;;;;22.31;28.32;96985.81;5075419;28;1026;-77
2023/08/30 11:58:05;;;;;;;;;;;;;;;22.08;28.47;96977.94;5058707;28;978;-76
2023/08/30 12:00:32;;;;;;;;;;;;;;;22.20;28.58;96964.91;5074832;28;853;-77
2023/08/30 12:02:58;;;;;;;;;;;;;;;22.26;28.27;96969.44;5058369;28;903;-76
2023/08/30 12:05:23;;;;;;;;;;;;;;;22.28;28.49;96963.31;5025184;28;1894;-77
2023/08/30 12:07:49;;;;;;;;;;;;;;;22.27;28.27;96967.38;5041519;28;904;-77
2023/08/30 12:10:17;;;;;;;;;;;;;;;21.98;28.81;96965.03;5055574;28;1156;-77
2023/08/30 12:12:46;;;;;;;;;;;;;;;22.07;28.62;96965.81;5057536;28;849;-76
2023/08/30 12:15:11;;;;;;;;;;;;;;;21.94;28.87;96967.25;5055351;28;914;-77
2023/08/30 12:17:37;;;;;;;;;;;;;;;22.08;28.50;96966.63;5073023;28;820;-76
2023/08/30 12:20:03;;;;;;;;;;;;;;;22.42;27.98;96956.97;5072651;28;951;-76
2023/08/30 12:22:38;;;;;;;;;;;;;;;22.22;28.29;96965.97;5072290;28;987;-77
2023/08/30 12:25:04;;;;;;;;;;;;;;;22.41;28.23;96960.28;5072733;28;845;-76
2023/08/30 12:27:30;;;;;;;;;;;;;;;22.35;28.36;96958.09;5054109;28;1910;-76
2023/08/30 12:29:55;;;;;;;;;;;;;;;22.14;28.52;96961.91;5054760;28;936;-76
2023/08/30 12:32:21;;;;;;;;;;;;;;;22.26;28.28;96966.59;5054444;28;1020;-76
2023/08/30 12:34:46;;;;;;;;;;;;;;;22.04;28.54;96948.97;5054456;28;960;-76
2023/08/30 12:37:12;;;;;;;;;;;;;;;22.21;28.35;96958.75;5037834;28;887;-76
2023/08/30 12:39:38;;;;;;;;;;;;;;;22.04;28.64;96954.66;5037960;28;1269;-76
2023/08/30 12:42:04;;;;;;;;;;;;;;;22.00;28.55;96948.34;5037996;28;814;-76
2023/08/30 12:44:29;;;;;;;;;;;;;;;22.20;28.12;96945.84;5053775;28;974;-76
2023/08/30 12:46:55;;;;;;;;;;;;;;;22.05;28.37;96939.22;5054361;28;1989;-77
2023/08/30 12:49:21;;;;;;;;;;;;;;;22.17;28.45;96929.78;5054328;28;906;-76
2023/08/30 12:51:46;;;;;;;;;;;;;;;22.14;28.32;96942.06;5034627;28;956;-76
2023/08/30 12:54:12;;;;;;;;;;;;;;;22.26;28.10;96941.09;5034527;28;1011;-76
2023/08/30 12:56:38;;;;;;;;;;;;;;;22.24;28.23;96940.81;5034477;28;819;-77
2023/08/30 12:59:03;;;;;;;;;;;;;;;22.33;27.91;96948.50;5049092;28;975;-76